sensor_id;sensor_type;location;lat;lon;timestamp;temperature;humidity
58666;DHT22;44436;52.872;6.520;2022-07-19T00:00:05;21.70;83.30
58666;DHT22;44436;52.872;6.520;2022-07-19T00:02:33;21.70;83.90
58666;DHT22;44436;52.872;6.520;2022-07-19T00:04:58;21.60;84.20
58666;DHT22;44436;52.872;6.520;2022-07-19T00:07:24;21.60;84.40
58666;DHT22;44436;52.872;6.520;2022-07-19T00:09:50;21.60;84.50
58666;DHT22;44436;52.872;6.520;2022-07-19T00:12:15;21.60;84.50
58666;DHT22;44436;52.872;6.520;2022-07-19T00:14:41;21.50;84.70
58666;DHT22;44436;52.872;6.520;2022-07-19T00:17:07;21.50;85.00
58666;DHT22;44436;52.872;6.520;2022-07-19T00:19:33;21.40;85.10
58666;DHT22;44436;52.872;6.520;2022-07-19T00:21:58;21.40;85.20
58666;DHT22;44436;52.872;6.520;2022-07-19T00:24:24;21.40;85.40
58666;DHT22;44436;52.872;6.520;2022-07-19T00:26:49;21.40;85.50
58666;DHT22;44436;52.872;6.520;2022-07-19T00:29:15;21.30;85.50
58666;DHT22;44436;52.872;6.520;2022-07-19T00:31:41;21.20;85.80
58666;DHT22;44436;52.872;6.520;2022-07-19T00:34:06;21.10;86.30
58666;DHT22;44436;52.872;6.520;2022-07-19T00:36:32;21.00;86.90
58666;DHT22;44436;52.872;6.520;2022-07-19T00:38:57;20.90;87.20
58666;DHT22;44436;52.872;6.520;2022-07-19T00:41:23;20.90;87.40
58666;DHT22;44436;52.872;6.520;2022-07-19T00:43:49;20.80;87.60
58666;DHT22;44436;52.872;6.520;2022-07-19T00:46:18;20.70;87.80
58666;DHT22;44436;52.872;6.520;2022-07-19T00:48:45;20.70;87.90
58666;DHT22;44436;52.872;6.520;2022-07-19T00:51:13;20.70;87.90
58666;DHT22;44436;52.872;6.520;2022-07-19T00:53:40;20.70;88.00
58666;DHT22;44436;52.872;6.520;2022-07-19T00:56:07;20.70;88.40
58666;DHT22;44436;52.872;6.520;2022-07-19T00:58:37;20.70;88.50
58666;DHT22;44436;52.872;6.520;2022-07-19T01:01:04;20.60;88.50
58666;DHT22;44436;52.872;6.520;2022-07-19T01:03:33;20.70;88.40
58666;DHT22;44436;52.872;6.520;2022-07-19T01:05:59;20.70;88.30
58666;DHT22;44436;52.872;6.520;2022-07-19T01:08:25;20.70;88.30
58666;DHT22;44436;52.872;6.520;2022-07-19T01:10:51;20.50;88.40
58666;DHT22;44436;52.872;6.520;2022-07-19T01:13:16;20.40;88.90
58666;DHT22;44436;52.872;6.520;2022-07-19T01:15:43;20.30;89.30
58666;DHT22;44436;52.872;6.520;2022-07-19T01:18:09;20.30;89.50
58666;DHT22;44436;52.872;6.520;2022-07-19T01:20:35;20.30;89.50
58666;DHT22;44436;52.872;6.520;2022-07-19T01:23:01;20.40;89.60
58666;DHT22;44436;52.872;6.520;2022-07-19T01:25:29;20.30;89.70
58666;DHT22;44436;52.872;6.520;2022-07-19T01:27:55;20.40;89.50
58666;DHT22;44436;52.872;6.520;2022-07-19T01:30:23;20.40;89.30
58666;DHT22;44436;52.872;6.520;2022-07-19T01:32:51;20.40;89.50
58666;DHT22;44436;52.872;6.520;2022-07-19T01:35:17;20.30;89.40
58666;DHT22;44436;52.872;6.520;2022-07-19T01:37:43;20.20;89.80
58666;DHT22;44436;52.872;6.520;2022-07-19T01:40:12;20.20;90.30
58666;DHT22;44436;52.872;6.520;2022-07-19T01:42:38;20.20;90.00
58666;DHT22;44436;52.872;6.520;2022-07-19T01:45:05;20.10;90.10
58666;DHT22;44436;52.872;6.520;2022-07-19T01:47:31;20.10;90.10
58666;DHT22;44436;52.872;6.520;2022-07-19T01:49:57;20.20;90.10
58666;DHT22;44436;52.872;6.520;2022-07-19T01:52:23;20.10;89.90
58666;DHT22;44436;52.872;6.520;2022-07-19T01:54:48;20.10;89.80
58666;DHT22;44436;52.872;6.520;2022-07-19T01:57:14;20.10;89.90
58666;DHT22;44436;52.872;6.520;2022-07-19T01:59:40;20.10;89.90
58666;DHT22;44436;52.872;6.520;2022-07-19T02:02:05;20.10;90.00
58666;DHT22;44436;52.872;6.520;2022-07-19T02:04:31;20.00;90.00
58666;DHT22;44436;52.872;6.520;2022-07-19T02:06:57;20.10;90.00
58666;DHT22;44436;52.872;6.520;2022-07-19T02:09:24;20.00;90.00
58666;DHT22;44436;52.872;6.520;2022-07-19T02:11:49;19.90;90.00
58666;DHT22;44436;52.872;6.520;2022-07-19T02:14:15;19.80;90.10
58666;DHT22;44436;52.872;6.520;2022-07-19T02:16:41;19.70;90.30
58666;DHT22;44436;52.872;6.520;2022-07-19T02:19:07;19.70;90.40
58666;DHT22;44436;52.872;6.520;2022-07-19T02:21:37;19.60;90.60
58666;DHT22;44436;52.872;6.520;2022-07-19T02:24:05;19.50;90.80
58666;DHT22;44436;52.872;6.520;2022-07-19T02:26:31;19.60;90.80
58666;DHT22;44436;52.872;6.520;2022-07-19T02:28:56;19.50;90.80
58666;DHT22;44436;52.872;6.520;2022-07-19T02:31:22;19.50;90.90
58666;DHT22;44436;52.872;6.520;2022-07-19T02:33:48;19.50;90.90
58666;DHT22;44436;52.872;6.520;2022-07-19T02:36:14;19.40;90.90
58666;DHT22;44436;52.872;6.520;2022-07-19T02:38:40;19.40;91.00
58666;DHT22;44436;52.872;6.520;2022-07-19T02:41:05;19.30;91.10
58666;DHT22;44436;52.872;6.520;2022-07-19T02:43:31;19.20;91.20
58666;DHT22;44436;52.872;6.520;2022-07-19T02:45:57;19.20;91.30
58666;DHT22;44436;52.872;6.520;2022-07-19T02:48:23;19.20;91.30
58666;DHT22;44436;52.872;6.520;2022-07-19T02:50:49;19.20;91.20
58666;DHT22;44436;52.872;6.520;2022-07-19T02:53:15;19.30;91.10
58666;DHT22;44436;52.872;6.520;2022-07-19T02:55:40;19.30;91.10
58666;DHT22;44436;52.872;6.520;2022-07-19T02:58:06;19.30;91.00
58666;DHT22;44436;52.872;6.520;2022-07-19T03:00:32;19.20;91.10
58666;DHT22;44436;52.872;6.520;2022-07-19T03:02:58;19.20;91.10
58666;DHT22;44436;52.872;6.520;2022-07-19T03:05:44;19.20;91.10
58666;DHT22;44436;52.872;6.520;2022-07-19T03:08:09;19.20;91.20
58666;DHT22;44436;52.872;6.520;2022-07-19T03:10:35;19.10;91.20
58666;DHT22;44436;52.872;6.520;2022-07-19T03:13:01;19.10;91.10
58666;DHT22;44436;52.872;6.520;2022-07-19T03:15:26;19.20;91.20
58666;DHT22;44436;52.872;6.520;2022-07-19T03:17:52;19.10;91.20
58666;DHT22;44436;52.872;6.520;2022-07-19T03:20:17;19.00;91.30
58666;DHT22;44436;52.872;6.520;2022-07-19T03:22:43;18.90;91.50
58666;DHT22;44436;52.872;6.520;2022-07-19T03:25:09;18.90;91.60
58666;DHT22;44436;52.872;6.520;2022-07-19T03:27:35;18.80;91.60
58666;DHT22;44436;52.872;6.520;2022-07-19T03:30:00;18.70;91.70
58666;DHT22;44436;52.872;6.520;2022-07-19T03:32:26;18.70;91.70
58666;DHT22;44436;52.872;6.520;2022-07-19T03:34:52;18.70;91.80
58666;DHT22;44436;52.872;6.520;2022-07-19T03:37:17;18.60;91.90
58666;DHT22;44436;52.872;6.520;2022-07-19T03:39:43;18.60;91.90
58666;DHT22;44436;52.872;6.520;2022-07-19T03:42:09;18.60;91.90
58666;DHT22;44436;52.872;6.520;2022-07-19T03:44:35;18.70;91.80
58666;DHT22;44436;52.872;6.520;2022-07-19T03:47:00;18.70;92.10
58666;DHT22;44436;52.872;6.520;2022-07-19T03:49:26;18.80;91.70
58666;DHT22;44436;52.872;6.520;2022-07-19T03:51:51;18.80;91.80
58666;DHT22;44436;52.872;6.520;2022-07-19T03:54:17;18.70;91.70
58666;DHT22;44436;52.872;6.520;2022-07-19T03:56:43;18.70;91.70
58666;DHT22;44436;52.872;6.520;2022-07-19T03:59:08;18.60;91.70
58666;DHT22;44436;52.872;6.520;2022-07-19T04:01:34;18.60;91.80
58666;DHT22;44436;52.872;6.520;2022-07-19T04:04:00;18.60;91.90
58666;DHT22;44436;52.872;6.520;2022-07-19T04:06:25;18.60;91.90
58666;DHT22;44436;52.872;6.520;2022-07-19T04:08:51;18.60;91.90
58666;DHT22;44436;52.872;6.520;2022-07-19T04:11:17;18.70;91.90
58666;DHT22;44436;52.872;6.520;2022-07-19T04:13:42;18.70;92.00
58666;DHT22;44436;52.872;6.520;2022-07-19T04:16:08;18.70;92.00
58666;DHT22;44436;52.872;6.520;2022-07-19T04:18:34;18.70;92.00
58666;DHT22;44436;52.872;6.520;2022-07-19T04:20:59;18.60;92.00
58666;DHT22;44436;52.872;6.520;2022-07-19T04:23:25;18.60;92.00
58666;DHT22;44436;52.872;6.520;2022-07-19T04:25:51;18.60;92.00
58666;DHT22;44436;52.872;6.520;2022-07-19T04:28:19;18.50;92.20
58666;DHT22;44436;52.872;6.520;2022-07-19T04:30:44;18.60;92.20
58666;DHT22;44436;52.872;6.520;2022-07-19T04:33:13;18.50;92.20
58666;DHT22;44436;52.872;6.520;2022-07-19T04:35:39;18.60;92.20
58666;DHT22;44436;52.872;6.520;2022-07-19T04:38:04;18.50;92.20
58666;DHT22;44436;52.872;6.520;2022-07-19T04:40:30;18.50;92.30
58666;DHT22;44436;52.872;6.520;2022-07-19T04:42:55;18.50;92.40
58666;DHT22;44436;52.872;6.520;2022-07-19T04:45:21;18.50;92.30
58666;DHT22;44436;52.872;6.520;2022-07-19T04:47:47;18.50;92.20
58666;DHT22;44436;52.872;6.520;2022-07-19T04:50:12;18.60;92.00
58666;DHT22;44436;52.872;6.520;2022-07-19T04:52:38;18.60;91.90
58666;DHT22;44436;52.872;6.520;2022-07-19T04:55:04;18.70;91.90
58666;DHT22;44436;52.872;6.520;2022-07-19T04:57:30;18.70;91.60
58666;DHT22;44436;52.872;6.520;2022-07-19T04:59:55;18.80;91.60
58666;DHT22;44436;52.872;6.520;2022-07-19T05:02:21;18.70;91.80
58666;DHT22;44436;52.872;6.520;2022-07-19T05:04:46;18.80;91.70
58666;DHT22;44436;52.872;6.520;2022-07-19T05:07:12;18.90;91.60
58666;DHT22;44436;52.872;6.520;2022-07-19T05:09:38;18.90;91.40
58666;DHT22;44436;52.872;6.520;2022-07-19T05:12:03;19.00;91.20
58666;DHT22;44436;52.872;6.520;2022-07-19T05:14:31;19.00;91.20
58666;DHT22;44436;52.872;6.520;2022-07-19T05:16:58;19.10;91.20
58666;DHT22;44436;52.872;6.520;2022-07-19T05:19:23;19.10;91.00
58666;DHT22;44436;52.872;6.520;2022-07-19T05:21:49;19.20;90.80
58666;DHT22;44436;52.872;6.520;2022-07-19T05:24:16;19.20;90.90
58666;DHT22;44436;52.872;6.520;2022-07-19T05:26:41;19.30;90.80
58666;DHT22;44436;52.872;6.520;2022-07-19T05:29:07;19.30;90.60
58666;DHT22;44436;52.872;6.520;2022-07-19T05:31:33;19.40;90.50
58666;DHT22;44436;52.872;6.520;2022-07-19T05:33:59;19.50;90.40
58666;DHT22;44436;52.872;6.520;2022-07-19T05:36:25;19.50;90.30
58666;DHT22;44436;52.872;6.520;2022-07-19T05:38:50;19.60;90.10
58666;DHT22;44436;52.872;6.520;2022-07-19T05:41:17;19.60;90.00
58666;DHT22;44436;52.872;6.520;2022-07-19T05:43:43;19.70;90.00
58666;DHT22;44436;52.872;6.520;2022-07-19T05:46:09;19.70;90.00
58666;DHT22;44436;52.872;6.520;2022-07-19T05:48:35;19.80;90.00
58666;DHT22;44436;52.872;6.520;2022-07-19T05:51:01;19.80;89.70
58666;DHT22;44436;52.872;6.520;2022-07-19T05:53:27;19.90;89.80
58666;DHT22;44436;52.872;6.520;2022-07-19T05:55:53;20.10;89.90
58666;DHT22;44436;52.872;6.520;2022-07-19T05:58:19;20.10;89.60
58666;DHT22;44436;52.872;6.520;2022-07-19T06:00:45;20.20;89.50
58666;DHT22;44436;52.872;6.520;2022-07-19T06:03:40;20.30;89.20
58666;DHT22;44436;52.872;6.520;2022-07-19T06:06:06;20.40;89.60
58666;DHT22;44436;52.872;6.520;2022-07-19T06:08:32;20.40;89.50
58666;DHT22;44436;52.872;6.520;2022-07-19T06:10:58;20.60;89.60
58666;DHT22;44436;52.872;6.520;2022-07-19T06:13:24;20.60;89.60
58666;DHT22;44436;52.872;6.520;2022-07-19T06:15:49;20.70;89.50
58666;DHT22;44436;52.872;6.520;2022-07-19T06:18:15;20.80;89.60
58666;DHT22;44436;52.872;6.520;2022-07-19T06:20:42;20.90;89.50
58666;DHT22;44436;52.872;6.520;2022-07-19T06:23:07;20.90;89.00
58666;DHT22;44436;52.872;6.520;2022-07-19T06:25:33;21.00;89.30
58666;DHT22;44436;52.872;6.520;2022-07-19T06:27:59;21.10;89.00
58666;DHT22;44436;52.872;6.520;2022-07-19T06:30:24;21.20;88.80
58666;DHT22;44436;52.872;6.520;2022-07-19T06:32:50;21.30;88.50
58666;DHT22;44436;52.872;6.520;2022-07-19T06:35:15;21.40;88.90
58666;DHT22;44436;52.872;6.520;2022-07-19T06:37:41;21.40;88.80
58666;DHT22;44436;52.872;6.520;2022-07-19T06:40:07;21.50;89.00
58666;DHT22;44436;52.872;6.520;2022-07-19T06:42:33;21.60;88.60
58666;DHT22;44436;52.872;6.520;2022-07-19T06:44:59;21.80;88.60
58666;DHT22;44436;52.872;6.520;2022-07-19T06:47:28;21.80;88.50
58666;DHT22;44436;52.872;6.520;2022-07-19T06:49:53;21.90;88.60
58666;DHT22;44436;52.872;6.520;2022-07-19T06:52:19;22.00;88.50
58666;DHT22;44436;52.872;6.520;2022-07-19T06:54:44;22.10;88.30
58666;DHT22;44436;52.872;6.520;2022-07-19T06:57:10;22.20;87.90
58666;DHT22;44436;52.872;6.520;2022-07-19T06:59:36;22.30;87.20
58666;DHT22;44436;52.872;6.520;2022-07-19T07:02:01;22.30;86.80
58666;DHT22;44436;52.872;6.520;2022-07-19T07:04:28;22.40;86.30
58666;DHT22;44436;52.872;6.520;2022-07-19T07:06:54;22.50;85.80
58666;DHT22;44436;52.872;6.520;2022-07-19T07:09:20;22.60;86.00
58666;DHT22;44436;52.872;6.520;2022-07-19T07:11:45;22.70;85.60
58666;DHT22;44436;52.872;6.520;2022-07-19T07:14:12;22.80;85.20
58666;DHT22;44436;52.872;6.520;2022-07-19T07:16:38;22.90;85.00
58666;DHT22;44436;52.872;6.520;2022-07-19T07:19:04;23.00;84.80
58666;DHT22;44436;52.872;6.520;2022-07-19T07:21:30;23.10;84.70
58666;DHT22;44436;52.872;6.520;2022-07-19T07:23:58;23.20;84.70
58666;DHT22;44436;52.872;6.520;2022-07-19T07:26:24;23.30;84.80
58666;DHT22;44436;52.872;6.520;2022-07-19T07:28:50;23.40;85.10
58666;DHT22;44436;52.872;6.520;2022-07-19T07:31:15;23.50;84.60
58666;DHT22;44436;52.872;6.520;2022-07-19T07:33:41;23.60;83.80
58666;DHT22;44436;52.872;6.520;2022-07-19T07:36:07;23.70;83.50
58666;DHT22;44436;52.872;6.520;2022-07-19T07:38:32;23.80;83.80
58666;DHT22;44436;52.872;6.520;2022-07-19T07:40:58;24.00;83.50
58666;DHT22;44436;52.872;6.520;2022-07-19T07:43:24;24.00;83.10
58666;DHT22;44436;52.872;6.520;2022-07-19T07:45:49;24.20;83.20
58666;DHT22;44436;52.872;6.520;2022-07-19T07:48:15;24.30;83.30
58666;DHT22;44436;52.872;6.520;2022-07-19T07:50:41;24.40;83.00
58666;DHT22;44436;52.872;6.520;2022-07-19T07:53:06;24.50;82.20
58666;DHT22;44436;52.872;6.520;2022-07-19T07:55:32;24.60;82.70
58666;DHT22;44436;52.872;6.520;2022-07-19T07:58:03;24.70;81.90
58666;DHT22;44436;52.872;6.520;2022-07-19T08:00:29;24.90;80.90
58666;DHT22;44436;52.872;6.520;2022-07-19T08:02:54;25.00;80.80
58666;DHT22;44436;52.872;6.520;2022-07-19T08:05:21;25.10;80.00
58666;DHT22;44436;52.872;6.520;2022-07-19T08:07:47;25.20;80.00
58666;DHT22;44436;52.872;6.520;2022-07-19T08:10:13;25.30;79.30
58666;DHT22;44436;52.872;6.520;2022-07-19T08:12:39;25.50;79.40
58666;DHT22;44436;52.872;6.520;2022-07-19T08:15:05;25.50;79.70
58666;DHT22;44436;52.872;6.520;2022-07-19T08:17:31;25.70;80.20
58666;DHT22;44436;52.872;6.520;2022-07-19T08:19:56;25.80;80.20
58666;DHT22;44436;52.872;6.520;2022-07-19T08:22:22;25.90;79.90
58666;DHT22;44436;52.872;6.520;2022-07-19T08:24:48;26.00;80.00
58666;DHT22;44436;52.872;6.520;2022-07-19T08:27:13;26.10;80.00
58666;DHT22;44436;52.872;6.520;2022-07-19T08:29:39;26.20;79.70
58666;DHT22;44436;52.872;6.520;2022-07-19T08:32:05;26.30;79.90
58666;DHT22;44436;52.872;6.520;2022-07-19T08:34:30;26.50;79.30
58666;DHT22;44436;52.872;6.520;2022-07-19T08:36:56;26.60;79.00
58666;DHT22;44436;52.872;6.520;2022-07-19T08:39:22;26.70;79.40
58666;DHT22;44436;52.872;6.520;2022-07-19T08:41:47;26.90;76.80
58666;DHT22;44436;52.872;6.520;2022-07-19T08:44:14;27.00;76.30
58666;DHT22;44436;52.872;6.520;2022-07-19T08:46:41;27.20;74.70
58666;DHT22;44436;52.872;6.520;2022-07-19T08:49:10;27.20;74.80
58666;DHT22;44436;52.872;6.520;2022-07-19T08:51:36;27.40;74.30
58666;DHT22;44436;52.872;6.520;2022-07-19T08:54:03;27.50;74.10
58666;DHT22;44436;52.872;6.520;2022-07-19T08:56:29;27.50;72.90
58666;DHT22;44436;52.872;6.520;2022-07-19T08:59:13;27.60;73.90
58666;DHT22;44436;52.872;6.520;2022-07-19T09:01:39;27.70;73.50
58666;DHT22;44436;52.872;6.520;2022-07-19T09:04:13;27.70;73.30
58666;DHT22;44436;52.872;6.520;2022-07-19T09:06:45;27.80;72.60
58666;DHT22;44436;52.872;6.520;2022-07-19T09:09:12;27.90;72.90
58666;DHT22;44436;52.872;6.520;2022-07-19T09:11:41;27.90;71.60
58666;DHT22;44436;52.872;6.520;2022-07-19T09:14:27;28.00;70.80
58666;DHT22;44436;52.872;6.520;2022-07-19T09:17:10;28.10;70.10
58666;DHT22;44436;52.872;6.520;2022-07-19T09:19:45;28.10;69.50
58666;DHT22;44436;52.872;6.520;2022-07-19T09:22:12;28.20;68.60
58666;DHT22;44436;52.872;6.520;2022-07-19T09:24:40;28.20;69.20
58666;DHT22;44436;52.872;6.520;2022-07-19T09:27:11;28.30;69.10
58666;DHT22;44436;52.872;6.520;2022-07-19T09:29:40;28.40;68.30
58666;DHT22;44436;52.872;6.520;2022-07-19T09:39:52;28.70;65.30
58666;DHT22;44436;52.872;6.520;2022-07-19T09:42:34;28.80;65.40
58666;DHT22;44436;52.872;6.520;2022-07-19T09:45:06;29.00;64.50
58666;DHT22;44436;52.872;6.520;2022-07-19T09:47:40;29.00;62.90
58666;DHT22;44436;52.872;6.520;2022-07-19T09:50:09;29.10;61.30
58666;DHT22;44436;52.872;6.520;2022-07-19T09:52:36;29.10;61.60
58666;DHT22;44436;52.872;6.520;2022-07-19T09:55:05;29.30;62.10
58666;DHT22;44436;52.872;6.520;2022-07-19T09:57:41;29.30;60.80
58666;DHT22;44436;52.872;6.520;2022-07-19T10:00:09;29.40;60.40
58666;DHT22;44436;52.872;6.520;2022-07-19T10:02:41;29.50;60.60
58666;DHT22;44436;52.872;6.520;2022-07-19T10:05:08;29.60;60.00
58666;DHT22;44436;52.872;6.520;2022-07-19T10:07:35;29.70;59.90
58666;DHT22;44436;52.872;6.520;2022-07-19T10:10:05;29.80;59.00
58666;DHT22;44436;52.872;6.520;2022-07-19T10:12:32;29.90;58.80
58666;DHT22;44436;52.872;6.520;2022-07-19T10:14:58;29.90;58.00
58666;DHT22;44436;52.872;6.520;2022-07-19T10:17:42;30.10;56.70
58666;DHT22;44436;52.872;6.520;2022-07-19T10:20:11;30.20;56.00
58666;DHT22;44436;52.872;6.520;2022-07-19T10:22:40;30.20;55.90
58666;DHT22;44436;52.872;6.520;2022-07-19T10:25:13;30.40;55.70
58666;DHT22;44436;52.872;6.520;2022-07-19T10:27:42;30.50;54.90
58666;DHT22;44436;52.872;6.520;2022-07-19T10:32:38;30.60;55.10
58666;DHT22;44436;52.872;6.520;2022-07-19T10:35:18;30.70;56.00
58666;DHT22;44436;52.872;6.520;2022-07-19T10:37:47;30.80;54.70
58666;DHT22;44436;52.872;6.520;2022-07-19T10:40:13;30.80;54.40
58666;DHT22;44436;52.872;6.520;2022-07-19T10:43:05;30.90;53.30
58666;DHT22;44436;52.872;6.520;2022-07-19T10:45:32;31.00;52.80
58666;DHT22;44436;52.872;6.520;2022-07-19T10:51:00;31.10;53.20
58666;DHT22;44436;52.872;6.520;2022-07-19T10:53:55;31.20;51.60
58666;DHT22;44436;52.872;6.520;2022-07-19T10:58:59;31.30;51.50
58666;DHT22;44436;52.872;6.520;2022-07-19T11:01:27;31.40;51.50
58666;DHT22;44436;52.872;6.520;2022-07-19T11:03:54;31.50;50.30
58666;DHT22;44436;52.872;6.520;2022-07-19T11:06:39;31.60;48.70
58666;DHT22;44436;52.872;6.520;2022-07-19T11:09:05;31.70;49.20
58666;DHT22;44436;52.872;6.520;2022-07-19T11:11:31;31.80;50.20
58666;DHT22;44436;52.872;6.520;2022-07-19T11:13:57;31.80;50.40
58666;DHT22;44436;52.872;6.520;2022-07-19T11:16:25;32.00;50.30
58666;DHT22;44436;52.872;6.520;2022-07-19T11:18:51;32.10;50.00
58666;DHT22;44436;52.872;6.520;2022-07-19T11:21:17;32.20;50.10
58666;DHT22;44436;52.872;6.520;2022-07-19T11:23:43;32.30;48.90
58666;DHT22;44436;52.872;6.520;2022-07-19T11:26:17;32.40;49.30
58666;DHT22;44436;52.872;6.520;2022-07-19T11:28:44;32.50;48.60
58666;DHT22;44436;52.872;6.520;2022-07-19T11:31:15;32.50;48.80
58666;DHT22;44436;52.872;6.520;2022-07-19T11:33:42;32.60;47.20
58666;DHT22;44436;52.872;6.520;2022-07-19T11:36:08;32.70;47.20
58666;DHT22;44436;52.872;6.520;2022-07-19T11:41:20;32.90;45.70
58666;DHT22;44436;52.872;6.520;2022-07-19T11:46:24;33.00;45.50
58666;DHT22;44436;52.872;6.520;2022-07-19T11:48:58;33.10;45.10
58666;DHT22;44436;52.872;6.520;2022-07-19T11:51:24;33.20;44.80
58666;DHT22;44436;52.872;6.520;2022-07-19T11:53:53;33.30;44.50
58666;DHT22;44436;52.872;6.520;2022-07-19T11:56:21;33.40;45.10
58666;DHT22;44436;52.872;6.520;2022-07-19T11:58:48;33.50;44.50
58666;DHT22;44436;52.872;6.520;2022-07-19T12:01:14;33.60;44.90
58666;DHT22;44436;52.872;6.520;2022-07-19T12:03:55;33.70;44.00
58666;DHT22;44436;52.872;6.520;2022-07-19T12:06:38;33.90;44.20
58666;DHT22;44436;52.872;6.520;2022-07-19T12:09:09;34.00;42.60
58666;DHT22;44436;52.872;6.520;2022-07-19T12:11:44;34.10;42.30
58666;DHT22;44436;52.872;6.520;2022-07-19T12:14:21;34.20;41.40
58666;DHT22;44436;52.872;6.520;2022-07-19T12:16:48;34.30;40.70
58666;DHT22;44436;52.872;6.520;2022-07-19T12:19:14;34.40;40.80
58666;DHT22;44436;52.872;6.520;2022-07-19T12:21:43;34.50;39.70
58666;DHT22;44436;52.872;6.520;2022-07-19T12:24:21;34.60;39.60
58666;DHT22;44436;52.872;6.520;2022-07-19T12:27:03;34.70;38.50
58666;DHT22;44436;52.872;6.520;2022-07-19T12:29:46;34.80;38.30
58666;DHT22;44436;52.872;6.520;2022-07-19T12:32:13;35.00;38.50
58666;DHT22;44436;52.872;6.520;2022-07-19T12:34:50;35.10;39.80
58666;DHT22;44436;52.872;6.520;2022-07-19T12:40:09;35.30;37.70
58666;DHT22;44436;52.872;6.520;2022-07-19T12:42:47;35.30;37.90
58666;DHT22;44436;52.872;6.520;2022-07-19T12:45:21;35.50;38.30
58666;DHT22;44436;52.872;6.520;2022-07-19T12:47:48;35.60;37.90
58666;DHT22;44436;52.872;6.520;2022-07-19T12:50:38;35.80;37.40
58666;DHT22;44436;52.872;6.520;2022-07-19T12:53:06;35.80;35.90
58666;DHT22;44436;52.872;6.520;2022-07-19T12:55:35;35.90;36.30
58666;DHT22;44436;52.872;6.520;2022-07-19T12:58:03;36.00;36.20
58666;DHT22;44436;52.872;6.520;2022-07-19T13:00:30;36.10;36.90
58666;DHT22;44436;52.872;6.520;2022-07-19T13:02:57;36.20;36.30
58666;DHT22;44436;52.872;6.520;2022-07-19T13:05:24;36.40;36.50
58666;DHT22;44436;52.872;6.520;2022-07-19T13:07:50;36.50;36.60
58666;DHT22;44436;52.872;6.520;2022-07-19T13:10:16;36.60;36.10
58666;DHT22;44436;52.872;6.520;2022-07-19T13:12:43;36.70;35.90
58666;DHT22;44436;52.872;6.520;2022-07-19T13:15:10;36.70;35.90
58666;DHT22;44436;52.872;6.520;2022-07-19T13:17:36;36.80;34.70
58666;DHT22;44436;52.872;6.520;2022-07-19T13:20:02;36.80;34.90
58666;DHT22;44436;52.872;6.520;2022-07-19T13:22:28;36.90;35.50
58666;DHT22;44436;52.872;6.520;2022-07-19T13:24:53;37.00;35.80
58666;DHT22;44436;52.872;6.520;2022-07-19T13:27:19;37.20;34.70
58666;DHT22;44436;52.872;6.520;2022-07-19T13:29:45;37.30;34.50
58666;DHT22;44436;52.872;6.520;2022-07-19T13:32:11;37.40;35.10
58666;DHT22;44436;52.872;6.520;2022-07-19T13:34:38;37.60;35.10
58666;DHT22;44436;52.872;6.520;2022-07-19T13:37:03;37.70;35.00
58666;DHT22;44436;52.872;6.520;2022-07-19T13:39:29;37.90;34.60
58666;DHT22;44436;52.872;6.520;2022-07-19T13:41:55;38.00;34.60
58666;DHT22;44436;52.872;6.520;2022-07-19T13:44:20;38.10;33.90
58666;DHT22;44436;52.872;6.520;2022-07-19T13:46:46;38.20;34.50
58666;DHT22;44436;52.872;6.520;2022-07-19T13:49:12;38.20;34.00
58666;DHT22;44436;52.872;6.520;2022-07-19T13:51:38;38.40;33.20
58666;DHT22;44436;52.872;6.520;2022-07-19T13:54:04;38.50;32.80
58666;DHT22;44436;52.872;6.520;2022-07-19T13:56:29;38.70;33.10
58666;DHT22;44436;52.872;6.520;2022-07-19T13:58:55;38.80;33.80
58666;DHT22;44436;52.872;6.520;2022-07-19T14:01:21;38.90;33.20
58666;DHT22;44436;52.872;6.520;2022-07-19T14:03:47;39.10;32.80
58666;DHT22;44436;52.872;6.520;2022-07-19T14:06:13;39.20;33.90
58666;DHT22;44436;52.872;6.520;2022-07-19T14:08:39;39.40;32.80
58666;DHT22;44436;52.872;6.520;2022-07-19T14:11:05;39.50;32.70
58666;DHT22;44436;52.872;6.520;2022-07-19T14:13:31;39.60;32.60
58666;DHT22;44436;52.872;6.520;2022-07-19T14:15:59;39.80;33.10
58666;DHT22;44436;52.872;6.520;2022-07-19T14:18:25;39.90;32.70
58666;DHT22;44436;52.872;6.520;2022-07-19T14:20:51;40.10;32.10
58666;DHT22;44436;52.872;6.520;2022-07-19T14:23:16;40.20;32.00
58666;DHT22;44436;52.872;6.520;2022-07-19T14:25:42;40.10;31.60
58666;DHT22;44436;52.872;6.520;2022-07-19T14:28:08;40.30;30.90
58666;DHT22;44436;52.872;6.520;2022-07-19T14:30:34;40.30;31.80
58666;DHT22;44436;52.872;6.520;2022-07-19T14:33:00;40.50;31.80
58666;DHT22;44436;52.872;6.520;2022-07-19T14:35:27;40.60;31.60
58666;DHT22;44436;52.872;6.520;2022-07-19T14:37:53;40.70;32.00
58666;DHT22;44436;52.872;6.520;2022-07-19T14:40:19;40.90;31.30
58666;DHT22;44436;52.872;6.520;2022-07-19T14:42:45;41.00;32.00
58666;DHT22;44436;52.872;6.520;2022-07-19T14:45:11;41.20;32.10
58666;DHT22;44436;52.872;6.520;2022-07-19T14:47:37;41.30;31.60
58666;DHT22;44436;52.872;6.520;2022-07-19T14:50:05;41.50;31.10
58666;DHT22;44436;52.872;6.520;2022-07-19T14:52:31;41.50;30.00
58666;DHT22;44436;52.872;6.520;2022-07-19T14:54:57;41.60;30.50
58666;DHT22;44436;52.872;6.520;2022-07-19T14:57:23;41.60;29.90
58666;DHT22;44436;52.872;6.520;2022-07-19T14:59:49;41.80;29.70
58666;DHT22;44436;52.872;6.520;2022-07-19T15:02:15;41.90;30.30
58666;DHT22;44436;52.872;6.520;2022-07-19T15:04:41;41.90;30.40
58666;DHT22;44436;52.872;6.520;2022-07-19T15:07:07;42.10;30.80
58666;DHT22;44436;52.872;6.520;2022-07-19T15:09:33;42.20;30.00
58666;DHT22;44436;52.872;6.520;2022-07-19T15:12:00;42.30;30.30
58666;DHT22;44436;52.872;6.520;2022-07-19T15:14:26;42.40;30.00
58666;DHT22;44436;52.872;6.520;2022-07-19T15:16:55;42.50;29.90
58666;DHT22;44436;52.872;6.520;2022-07-19T15:19:21;42.50;30.50
58666;DHT22;44436;52.872;6.520;2022-07-19T15:21:46;42.70;29.50
58666;DHT22;44436;52.872;6.520;2022-07-19T15:24:12;42.60;29.30
58666;DHT22;44436;52.872;6.520;2022-07-19T15:26:38;42.70;30.00
58666;DHT22;44436;52.872;6.520;2022-07-19T15:29:03;42.70;30.10
58666;DHT22;44436;52.872;6.520;2022-07-19T15:31:29;42.80;29.30
58666;DHT22;44436;52.872;6.520;2022-07-19T15:33:55;42.90;29.40
58666;DHT22;44436;52.872;6.520;2022-07-19T15:36:21;42.90;29.40
58666;DHT22;44436;52.872;6.520;2022-07-19T15:38:47;43.00;29.20
58666;DHT22;44436;52.872;6.520;2022-07-19T15:41:12;43.10;28.90
58666;DHT22;44436;52.872;6.520;2022-07-19T15:43:39;43.10;29.40
58666;DHT22;44436;52.872;6.520;2022-07-19T15:46:04;43.20;29.00
58666;DHT22;44436;52.872;6.520;2022-07-19T15:48:30;43.20;29.40
58666;DHT22;44436;52.872;6.520;2022-07-19T15:50:56;43.30;29.30
58666;DHT22;44436;52.872;6.520;2022-07-19T15:53:21;43.30;28.60